De Panne, Belgium
Current Conditions -  °F | °C
As of 8:25 AM on Wednesday 26 Nov 2014 (Local Time) from EBFN Reporting Station
Light Rain Light Rain  
Wind Chill: 39°   Ceiling: 1400
Heat Index: 43°   Visibility: 2.5mi
Dew Point: 41°   Wind: 7mph
Humidity: 93%   Direction: 110°ESE
Pressure: 29.91"   Gusts: NA
Location:  51.1°N, 2.59°E
Report Text: EBFN 260725Z 11006KT 4000 -RADZ FEW012 BKN014 06/05 Q1013 GRN GRN TEMPO YLO
Loading
Personal Weather Stations






























Interactive Weather Map New forecast layout! Learn more

10-Day Weather Forecast

Advertisements
Track Severe Weather on mobile